x

Portland 12 Nm Southeast Of Portland,me (44007) Wave Buoy

2:50 - Sun 24th Sep 2017 All times are EDT. -4 hours from GMT.

  • Sig Wave height 3.0ft
  • Swell Direction
  • Peak Period 14s
  • Average Period 7s
  • Wind
    2mph, 2mph gusts
  • Sea Temp 60°f
  • Ar Temp 61°f
  • Sea Pressure 1015.9mb
  • Portland 12 Nm Southeast Of Portland,me
  • Portland 12 Nm Southeast Of Portland,me

More Historic Weather Station data

Upgrade to MSW Pro to gain access to the past 30 days of data for over 8000 Wavebouys and Weather Stations around the globe.

Join

Comparision Forecast

View Surf forecast
   
Dom 09/24 2:50 3ft 14s 7s 2 2 mph 1015.9mb 60f 61f
1:50 3.5ft 7s 7s 4 4 mph 1016.1mb 60f 61f
12:50 3.5ft 8s 7s 7 7 mph 1016.1mb 59f 62f
Sáb 09/23 11:50 3.5ft 7s 7s 7 9 mph 1016.3mb 59f 62f
10:50 3.5ft 8s 7s 7 7 mph 1016.4mb 59f 61f
9:50 4ft 8s 7s 7 7 mph 1016.5mb 60f 61f
8:50 4ft 8s 7s 7 9 mph 1016.3mb 60f 62f
7:50 4ft 10s 7s 7 7 mph 1016.4mb 61f 62f
6:50 4ft 10s 7s 7 9 mph 1016mb 62f 62f
5:50 4ft 10s 7s 4 7 mph 1015.8mb 62f 63f
4:50 4ft 9s 6s 4 7 mph 1015.8mb 62f 64f
3:50 3.5ft 8s 6s 9 9 mph 1015.6mb 63f 64f
2:50 4.5ft 8s 6s 7 7 mph 1015.9mb 63f 64f
1:50 4.5ft 8s 6s 7 7 mph 1016mb 63f 64f
12:50 4.5ft 8s 6s 4 4 mph 1016.4mb 62f 64f
11:50 5ft 8s 7s 4 4 mph 1016.7mb 61f 63f
10:50 5ft 9s 7s 7 7 mph 1017.2mb 60f 61f
9:50 5.5ft 9s 7s 9 9 mph 1017.2mb 59f 60f
8:50 6ft 8s 7s 9 11 mph 1017.3mb 59f 60f
7:50 5.5ft 9s 7s 9 11 mph 1016.7mb 59f 59f
6:50 5ft 9s 7s 9 11 mph 1016.5mb 59f 59f
5:50 5.5ft 9s 7s 9 11 mph 1016.3mb 59f 60f
4:50 4.5ft 9s 6s 9 11 mph 1016.3mb 59f 60f
3:50 5ft 10s 7s 9 9 mph 1016.4mb 60f 61f
2:50 5ft 8s 6s 7 9 mph 1016.8mb 60f 61f
1:50 5ft 8s 6s 9 9 mph 1017mb 60f 62f
12:50 6ft 9s 6s 9 11 mph 1016.7mb 60f 62f
Sex 09/22 11:50 6ft 9s 6s 7 9 mph 1017.3mb 59f 62f
10:50 7ft 9s 6s 9 11 mph 1017.5mb 59f 62f
9:50 7.5ft 9s 7s 13 16 mph 1017.4mb 59f 62f
8:50 8ft 10s 7s 16 18 mph 1017.5mb 58f 62f
7:50 8ft 9s 7s 18 20 mph 1017.5mb 58f 61f
6:50 8.5ft 10s 8s 13 16 mph 1017.3mb 59f 61f
5:50 8ft 10s 8s 9 11 mph 1017.3mb 59f 62f
4:50 7.5ft 9s 7s 11 11 mph 1017.1mb 59f 62f
3:50 9ft 10s 8s 16 18 mph 1017.1mb 59f 64f
2:50 7ft 10s 7s 11 13 mph 1017.3mb 59f 62f
1:50 8ft 10s 7s 11 13 mph 1017.6mb 59f 62f
12:50 8ft 10s 7s 13 16 mph 1018.2mb 59f 61f
11:50 8ft 9s 7s 13 16 mph 1018.7mb 59f 60f
10:50 8ft 9s 7s 18 22 mph 1018.3mb 58f 59f
9:50 8.5ft 10s 7s 22 27 mph 1018.5mb 58f 58f
8:50 9ft 9s  -  25 29 mph 1018.5mb 58f 57f
7:50 8ft 10s 6s 25 29 mph 1018.3mb 58f 56f
6:50 7.5ft 10s 7s 25 27 mph 1018.2mb 59f 57f
5:50 8ft 10s 7s 22 27 mph 1017.5mb 59f 58f
4:50 8ft 10s 7s 22 25 mph 1017.7mb 58f 59f
3:50 8ft 9s 7s 18 22 mph 1017.9mb 59f 60f
2:50 7.5ft 9s 6s 16 20 mph 1018.2mb 59f 60f
1:50 7ft 10s 6s 18 20 mph 1018.5mb 58f 61f
12:50 7ft 10s 6s 18 20 mph 1018.4mb 58f 62f
Qui 09/21 11:50 6.5ft 9s 6s 16 20 mph 1018.5mb 58f 62f
10:50 7.5ft 10s 7s 13 16 mph 1018.5mb 58f 62f
9:50 6ft 9s 7s 9 11 mph 1018.8mb 58f 60f
8:50 5.5ft 10s 6s 9 11 mph 1018.6mb 58f 60f
7:50 6ft 9s 7s 16 25 mph 1017.9mb 59f 64f
6:50 6ft 8s 6s 13 16 mph 1017.4mb 59f 63f
5:50 6ft 9s 7s 13 16 mph 1017.2mb 59f 64f
4:50 7ft 10s 7s 13 16 mph 1017.2mb 59f 65f
3:50 7ft 9s 7s 9 11 mph 1017.2mb 59f 63f
2:50 6ft 8s 6s 9 11 mph 1017.2mb 59f 64f
1:50 6ft 8s 6s 7 9 mph 1017mb 59f 64f
12:50 6ft 8s 6s 11 13 mph 1017.2mb 59f 64f
11:50 6ft 7s 6s 16 16 mph 1017.6mb 59f 63f
10:50 6ft 8s 6s 18 20 mph 1017.7mb 59f 62f
9:50 6ft 8s 6s 18 22 mph 1017.4mb 59f 62f
8:50 6.5ft 9s 6s 20 25 mph 1016.8mb 59f 62f
7:50 6.5ft 8s 6s 20 22 mph 1016.3mb 59f 62f
6:50 5.5ft 12s 6s 20 25 mph 1015.2mb 59f 63f
5:50 6ft 9s 7s 20 22 mph 1014.8mb 59f 63f
4:50 6ft 11s 7s 20 22 mph 1014.1mb 59f 64f
3:50 6ft 12s 7s 20 25 mph 1013.5mb 59f 64f
2:50 6ft 12s 7s 18 22 mph 1013.3mb 60f 64f
1:50 5ft 12s 6s 18 22 mph 1013.2mb 60f 64f
12:50 5.5ft 12s 7s 18 20 mph 1013.2mb 60f 64f
Qua 09/20 11:50 5.5ft 12s 7s 16 20 mph 1013.1mb 60f 64f
10:50 5.5ft 12s 6s 16 18 mph 1013.1mb 60f 65f
9:50 5.5ft 10s 7s 16 18 mph 1012.9mb 60f 65f
8:50 5ft 12s 7s 16 18 mph 1012.6mb 60f 66f
7:50 6.5ft 11s 7s 13 16 mph 1012.8mb 60f 65f
6:50 6ft 12s 8s 11 13 mph 1012.7mb 60f 65f
5:50 6ft 11s 8s 11 13 mph 1012.7mb 60f 65f
4:50 6ft 12s 7s 11 13 mph 1012.4mb 60f 65f
3:50 6ft 10s 7s 11 13 mph 1012.6mb 60f 64f
2:50 6ft 10s 7s 16 16 mph 1012.7mb 60f 64f
1:50 5.5ft 11s 7s 13 16 mph 1013mb 60f 64f
12:50 6ft 11s 7s 11 13 mph 1013.5mb 60f 63f
11:50 6ft 12s 7s 11 13 mph 1013.8mb 60f 62f
10:50 5.5ft 12s 6s 11 13 mph 1014.4mb 60f 62f
9:50 5.5ft 12s 7s 11 13 mph 1014.4mb 60f 62f
8:50 6ft 10s 7s 13 16 mph 1014.5mb 60f 62f